createdAt,value
2022-11-27T00:02:03.223Z,1.73
2022-11-27T00:07:07.378Z,1.82
2022-11-27T00:12:12.750Z,1.65
2022-11-27T00:17:16.822Z,1.94
2022-11-27T00:22:21.018Z,2.09
2022-11-27T00:27:26.477Z,1.86
2022-11-27T00:32:30.744Z,1.44
2022-11-27T00:37:35.165Z,1.63
2022-11-27T00:42:40.834Z,1.86
2022-11-27T00:47:44.866Z,1.82
2022-11-27T00:52:49.018Z,2.08
2022-11-27T00:57:54.484Z,2.11
2022-11-27T01:02:58.579Z,2.25
2022-11-27T01:08:02.738Z,2.12
2022-11-27T01:13:08.142Z,1.96
2022-11-27T01:18:12.638Z,1.99
2022-11-27T01:23:17.862Z,1.73
2022-11-27T01:28:24.724Z,1.63
2022-11-27T01:33:28.827Z,1.77
2022-11-27T01:38:34.251Z,2.12
2022-11-27T01:43:43.306Z,2.09
2022-11-27T01:48:48.238Z,2.09
2022-11-27T01:53:54.884Z,2.15
2022-11-27T01:59:02.378Z,2.06
2022-11-27T02:04:06.721Z,1.81
2022-11-27T02:09:11.697Z,1.75
2022-11-27T02:14:25.423Z,1.91
2022-11-27T02:19:46.553Z,2.17
2022-11-27T02:24:57.568Z,2.51
2022-11-27T02:30:06.453Z,2.51
2022-11-27T02:35:16.109Z,2.52
2022-11-27T02:40:26.228Z,2.26
2022-11-27T02:45:35.413Z,1.87
2022-11-27T02:50:43.045Z,1.84
2022-11-27T02:55:50.020Z,2.24
2022-11-27T03:00:57.051Z,2.28
2022-11-27T03:06:07.708Z,2.33
2022-11-27T03:11:14.391Z,2.28
2022-11-27T03:16:29.450Z,2.11
2022-11-27T03:21:36.420Z,2.05
2022-11-27T03:26:41.820Z,2.13
2022-11-27T03:31:47.528Z,2.16
2022-11-27T03:36:51.930Z,2.33
2022-11-27T03:42:08.651Z,1.99
2022-11-27T03:47:22.753Z,2.12
2022-11-27T03:52:34.607Z,2.08
2022-11-27T03:57:44.592Z,2.44
2022-11-27T04:02:53.318Z,2.61
2022-11-27T04:07:57.506Z,2.29
2022-11-27T04:13:01.524Z,2.37
2022-11-27T04:18:07.356Z,2.44
2022-11-27T04:23:14.153Z,2.36
2022-11-27T04:28:21.534Z,2.19
2022-11-27T04:33:27.686Z,2.21
2022-11-27T04:38:31.875Z,2.31
2022-11-27T04:43:35.913Z,2.43
2022-11-27T04:48:41.285Z,2.00
2022-11-27T04:53:45.357Z,1.77
2022-11-27T04:58:49.530Z,1.63
2022-11-27T05:03:55.259Z,2.05
2022-11-27T05:09:02.425Z,2.03
2022-11-27T05:14:20.048Z,2.03
2022-11-27T05:19:27.460Z,2.14
2022-11-27T05:24:31.805Z,2.15
2022-11-27T05:29:36.886Z,2.26
2022-11-27T05:34:42.940Z,2.41
2022-11-27T05:39:47.145Z,2.24
2022-11-27T05:44:56.728Z,2.28
2022-11-27T05:50:07.799Z,2.32
2022-11-27T05:55:15.254Z,2.14
2022-11-27T06:00:19.719Z,2.31
2022-11-27T06:05:27.843Z,2.61
2022-11-27T06:10:32.104Z,2.69
2022-11-27T06:15:37.868Z,2.71
2022-11-27T06:20:45.314Z,2.70
2022-11-27T06:25:50.764Z,2.35
2022-11-27T06:30:55.096Z,2.53
2022-11-27T06:36:00.460Z,2.77
2022-11-27T06:41:06.435Z,2.70
2022-11-27T06:46:15.484Z,2.75
2022-11-27T06:51:23.503Z,2.68
2022-11-27T06:56:29.768Z,2.61
2022-11-27T07:01:36.879Z,2.62
2022-11-27T07:06:42.877Z,2.82
2022-11-27T07:11:46.956Z,2.98
2022-11-27T07:16:51.416Z,2.97
2022-11-27T07:21:57.143Z,2.81
2022-11-27T07:27:01.570Z,2.99
2022-11-27T07:32:06.648Z,2.79
2022-11-27T07:37:12.160Z,2.87
2022-11-27T07:42:37.616Z,2.97
2022-11-27T07:47:42.584Z,3.24
2022-11-27T07:52:48.415Z,3.35
2022-11-27T07:57:52.772Z,3.69
2022-11-27T08:02:57.134Z,4.29
2022-11-27T08:08:04.466Z,5.39
2022-11-27T08:13:09.595Z,5.48
2022-11-27T08:18:16.536Z,5.78
2022-11-27T08:23:22.134Z,5.86
2022-11-27T08:28:26.509Z,5.60
2022-11-27T08:33:33.057Z,5.54
2022-11-27T08:38:38.678Z,5.69
2022-11-27T08:43:43.104Z,5.79
2022-11-27T08:48:47.725Z,5.57
2022-11-27T08:53:53.865Z,5.69
2022-11-27T08:59:00.222Z,5.83
2022-11-27T09:04:04.491Z,5.98
2022-11-27T09:09:10.418Z,5.91
2022-11-27T09:14:15.498Z,5.81
2022-11-27T09:19:19.741Z,5.80
2022-11-27T09:24:26.025Z,5.89
2022-11-27T09:29:30.726Z,5.90
2022-11-27T09:34:37.737Z,6.13
2022-11-27T09:39:43.507Z,6.19
2022-11-27T09:44:54.758Z,6.01
2022-11-27T09:50:02.981Z,5.79
2022-11-27T09:55:16.075Z,5.88
2022-11-27T10:00:22.388Z,5.81
2022-11-27T10:05:30.420Z,5.82
2022-11-27T10:10:46.816Z,5.93
2022-11-27T10:15:57.120Z,5.88
2022-11-27T10:21:07.875Z,5.81
2022-11-27T10:26:20.046Z,6.06
2022-11-27T10:31:58.747Z,6.11
2022-11-27T10:37:09.059Z,6.13
2022-11-27T10:42:21.097Z,6.27
2022-11-27T10:47:33.513Z,6.17
2022-11-27T10:52:51.137Z,5.85
2022-11-27T10:58:08.253Z,5.59
2022-11-27T11:03:18.386Z,5.50
2022-11-27T11:08:24.594Z,5.51
2022-11-27T11:13:32.497Z,5.28
2022-11-27T11:18:43.913Z,5.41
2022-11-27T11:23:58.596Z,5.16
2022-11-27T11:29:08.176Z,5.32
2022-11-27T11:34:21.928Z,5.15
2022-11-27T11:39:28.550Z,5.15
2022-11-27T11:44:38.765Z,5.25
2022-11-27T11:49:44.729Z,5.27
2022-11-27T11:54:55.312Z,5.45
2022-11-27T12:00:07.921Z,5.77
2022-11-27T12:05:31.135Z,5.70
2022-11-27T12:10:50.447Z,5.95
2022-11-27T12:16:07.097Z,5.89
2022-11-27T12:21:16.706Z,5.87
2022-11-27T12:26:29.823Z,5.84
2022-11-27T12:31:48.409Z,5.68
2022-11-27T12:37:13.975Z,5.76
2022-11-27T12:42:27.142Z,5.92
2022-11-27T12:47:40.508Z,6.05
2022-11-27T12:52:49.919Z,5.92
2022-11-27T12:57:58.576Z,5.78
2022-11-27T13:03:12.649Z,5.73
2022-11-27T13:08:25.711Z,5.82
2022-11-27T13:13:34.995Z,5.69
2022-11-27T13:18:45.244Z,5.74
2022-11-27T13:23:49.764Z,5.80
2022-11-27T13:29:01.964Z,5.87
2022-11-27T13:34:10.178Z,5.90
2022-11-27T13:39:25.538Z,5.81
2022-11-27T13:44:31.284Z,6.03
2022-11-27T13:49:38.812Z,5.85
2022-11-27T13:54:55.044Z,5.66
2022-11-27T14:00:02.543Z,5.92
2022-11-27T14:05:22.321Z,5.79
2022-11-27T14:10:28.928Z,5.79
2022-11-27T14:15:37.140Z,5.53
2022-11-27T14:20:50.686Z,5.68
2022-11-27T14:26:03.152Z,5.85
2022-11-27T14:31:07.606Z,5.47
2022-11-27T14:36:25.691Z,5.43
2022-11-27T14:41:31.370Z,5.47
2022-11-27T14:46:38.955Z,5.47
2022-11-27T14:51:49.441Z,5.44
2022-11-27T14:56:55.169Z,5.67
2022-11-27T15:02:03.040Z,5.34
2022-11-27T15:07:16.498Z,5.18
2022-11-27T15:12:23.924Z,5.07
2022-11-27T15:17:32.045Z,5.12
2022-11-27T15:22:38.437Z,5.15
2022-11-27T15:27:47.425Z,4.88
2022-11-27T15:32:52.941Z,4.85
2022-11-27T15:38:05.896Z,4.72
2022-11-27T15:43:14.137Z,4.73
2022-11-27T15:48:23.398Z,4.61
2022-11-27T15:53:29.687Z,4.44
2022-11-27T15:58:33.810Z,4.37
2022-11-27T16:03:39.943Z,4.53
2022-11-27T16:08:48.278Z,4.42
2022-11-27T16:13:53.055Z,4.33
2022-11-27T16:19:03.244Z,4.25
2022-11-27T16:24:12.974Z,4.31
2022-11-27T16:29:17.907Z,4.35
2022-11-27T16:34:21.980Z,4.29
2022-11-27T16:39:28.787Z,4.26
2022-11-27T16:44:36.711Z,4.50
2022-11-27T16:49:42.252Z,4.73
2022-11-27T16:54:56.797Z,4.72
2022-11-27T17:00:03.024Z,4.70
2022-11-27T17:05:14.862Z,4.37
2022-11-27T17:10:25.378Z,4.17
2022-11-27T17:15:29.401Z,3.87
2022-11-27T17:20:33.943Z,3.94
2022-11-27T17:25:42.289Z,4.00
2022-11-27T17:30:47.071Z,3.88
2022-11-27T17:35:52.103Z,3.82
2022-11-27T17:41:01.619Z,4.15
2022-11-27T17:46:08.902Z,4.16
2022-11-27T17:51:15.428Z,4.12
2022-11-27T17:56:23.916Z,4.20
2022-11-27T18:01:30.248Z,4.22
2022-11-27T18:06:38.149Z,4.14
2022-11-27T18:11:44.046Z,4.11
2022-11-27T18:16:50.275Z,4.18
2022-11-27T18:21:55.374Z,4.24
2022-11-27T18:27:09.506Z,4.26
2022-11-27T18:32:20.254Z,4.24
2022-11-27T18:37:24.738Z,4.57
2022-11-27T18:42:32.855Z,4.53
2022-11-27T18:47:39.843Z,4.57
2022-11-27T18:52:46.987Z,4.52
2022-11-27T18:57:52.473Z,4.30
2022-11-27T19:02:57.910Z,4.63
2022-11-27T19:08:04.416Z,4.52
2022-11-27T19:13:12.786Z,4.46
2022-11-27T19:18:18.879Z,4.24
2022-11-27T19:23:24.987Z,4.29
2022-11-27T19:28:31.035Z,4.08
2022-11-27T19:33:37.503Z,4.12
2022-11-27T19:38:46.713Z,4.33
2022-11-27T19:43:54.364Z,4.30
2022-11-27T19:49:01.604Z,4.25
2022-11-27T19:54:10.319Z,4.22
2022-11-27T19:59:21.405Z,4.30
2022-11-27T20:04:31.117Z,4.35
2022-11-27T20:09:36.054Z,4.32
2022-11-27T20:14:42.647Z,4.33
2022-11-27T20:19:46.919Z,4.42
2022-11-27T20:25:17.338Z,4.56
2022-11-27T20:30:18.829Z,4.82
2022-11-27T20:35:25.129Z,4.60
2022-11-27T20:40:33.858Z,4.78
2022-11-27T20:45:40.699Z,4.69
2022-11-27T20:50:51.021Z,4.87
2022-11-27T20:55:55.342Z,4.85
2022-11-27T21:01:01.516Z,4.95
2022-11-27T21:06:07.077Z,4.94
2022-11-27T21:11:13.241Z,4.87
2022-11-27T21:16:19.559Z,4.94
2022-11-27T21:21:25.167Z,4.78
2022-11-27T21:26:29.978Z,4.73
2022-11-27T21:31:37.869Z,4.43
2022-11-27T21:36:43.066Z,4.32
2022-11-27T21:41:48.845Z,4.17
2022-11-27T21:46:54.459Z,4.20
2022-11-27T21:51:58.431Z,4.20
2022-11-27T21:57:07.792Z,4.05
2022-11-27T22:02:13.631Z,3.95
2022-11-27T22:07:18.227Z,4.04
2022-11-27T22:12:22.250Z,4.23
2022-11-27T22:17:28.506Z,4.20
2022-11-27T22:22:32.546Z,4.26
2022-11-27T22:27:40.631Z,4.32
2022-11-27T22:32:46.071Z,4.12
2022-11-27T22:37:54.881Z,3.89
2022-11-27T22:43:00.109Z,3.59
2022-11-27T22:48:06.679Z,3.55
2022-11-27T22:53:10.658Z,3.47
2022-11-27T22:58:15.103Z,3.49
2022-11-27T23:03:21.073Z,3.59
2022-11-27T23:08:25.571Z,3.42
2022-11-27T23:13:32.146Z,3.16
2022-11-27T23:18:39.398Z,3.48
2022-11-27T23:23:44.638Z,3.13
2022-11-27T23:28:49.985Z,3.08
2022-11-27T23:33:56.124Z,3.09
2022-11-27T23:39:01.509Z,3.17
2022-11-27T23:44:05.836Z,3.04
2022-11-27T23:49:11.336Z,3.12
2022-11-27T23:54:16.453Z,2.99
2022-11-27T23:59:21.028Z,2.79
